Share

Forest Hill, LA (71430)

Oak Hill Community (KLAELMER1) Elev 217 ft | 31.10 °N, 92.70 °W | Change Station
Active Advisory: Flood Warning

Current weather conditions updated 6 minutes ago

Clear
Clear
54.3 °F
Feels Like 54.3 °F
N
0.0
Wind Variable Wind from South
Sunrise 6:36 AM
Sunset 7:41 PM
Moon Waning Gibbous

Today is forecast to be nearly the same temperature as yesterday.

Pressure 30.16 in
Visibility 10.0 miles
Clouds Clear
Dew Point 54 °F
Humidity 99%
Rainfall 0.00 in
Snow Depth Not available.
UV 0 out of 16
Pollen 6.70 out of 12
Air Quality Not available.
Flu Activity Local Activity
SPECI KAEX 201206Z 00000KT 10SM CLR 12/12 A3016 RMK AO2 T01170117

More Conditions Fewer Conditions

Pressure 30.16 in
Visibility 10.0 miles
Clouds Clear
Dew Point 54 °F
Humidity 99%
Rainfall 0.00 in
Snow Depth Not available.
UV 0 out of 16
Pollen 6.70 out of 12
Air Quality Not available.
Flu Activity Local Activity
SPECI KAEX 201206Z 00000KT 10SM CLR 12/12 A3016 RMK AO2 T01170117

More Conditions Fewer Conditions

10-Day Weather Forecast

Almanac

Astronomy

Apr. 20, 2014 Rise Set
Actual Time 6:36 AM CDT 7:41 PM CDT
Civil Twilight 6:11 AM CDT 8:06 PM CDT
Nautical Twilight 5:41 AM CDT 8:36 PM CDT
Astronomical Twilight 5:11 AM CDT 9:07 PM CDT
Moon 12:14 AM CDT 11:05 AM CDT
Length of Visible Light 13h 55m
Length of Day
13h 05m
Tomorrow will be 1m 44s longer.
Waning Gibbous, 70% of the Moon is Illuminated
Today
Waning Gibbous
Apr 22
Last Quarter
Apr 29
New
May 6
First Quarter
May 14
Full

Today's Extremes

State Highs State Lows

Community

  • EARLY FOGGY MORNING
    EARLY FOGGY MORNING
  • Easter Greetings
    Easter Greetings
  • Sunny day at the coast-Cape Arago Lighthouse
    Sunny day at the coast-Cape Arago Lighthouse
  • Cherry Blossoms
    Cherry Blossoms
  • White-Crowned Sparrow
    White-Crowned Sparrow

WunderPhotos

Upload Photos

1,703,189 photos uploaded!

Nearby

Snow Depth

Station Depth Elevation
No new snow has been reported.

Coastal Water Temperatures

Place Temperature
No Stations Reporting

Earthquake Activity

City Distance Mag. Time & Date
No recent earthquake activity has been reported nearby.
Minimum magnitude displayed is 2.5.

Nearby Weather Stations

Station Location Temp. Dew Point Humidity Wind Precip. Elev Updated Type
Oak Hill Community, Elmer, LA 54.3 °F 54 °F 99% South  at  0.0 mph - / hr 217 ft 7:49 AM CDT Normal
APRSWXNET Alexandria LA , Alexandria, LA - - - East  at  0 mph 0.00 in / hr 75 ft 7:31 AM CDT MADIS
Good Earth, Alexandria, LA 56.6 °F 56 °F 96% NE  at  1.0 mph 0.00 in / hr 80 ft 7:46 AM CDT Normal
MesoWest CHNYVL , Cheneyville, LA 51 °F - - North  at  - 0.00 in / hr 68 ft 6:20 AM CDT MADIS
Rigolette, Pineville, LA 53.5 °F 53 °F 98% SW  at  0.0 mph 0.00 in / hr 98 ft 7:54 AM CDT Rapid Fire

Show More Stations Show Fewer Stations

What do you think?

We're not finished. Please let us know what you like, what you don't like, and what you are still missing.